createdAt,value
2023-05-15T00:00:16.101Z,12.30
2023-05-15T00:02:44.975Z,12.30
2023-05-15T00:05:13.064Z,12.30
2023-05-15T00:07:40.900Z,12.40
2023-05-15T00:10:08.687Z,12.40
2023-05-15T00:12:36.263Z,12.40
2023-05-15T00:15:03.514Z,12.00
2023-05-15T00:17:30.329Z,11.90
2023-05-15T00:19:59.130Z,12.00
2023-05-15T00:22:26.236Z,11.90
2023-05-15T00:24:53.227Z,11.80
2023-05-15T00:27:19.995Z,11.90
2023-05-15T00:29:46.816Z,12.00
2023-05-15T00:32:13.565Z,12.00
2023-05-15T00:34:40.438Z,12.00
2023-05-15T00:37:08.493Z,12.00
2023-05-15T00:39:36.192Z,11.90
2023-05-15T00:42:07.818Z,11.80
2023-05-15T00:44:35.741Z,11.70
2023-05-15T00:47:03.958Z,11.60
2023-05-15T00:49:34.626Z,11.70
2023-05-15T00:52:04.404Z,11.60
2023-05-15T00:54:31.336Z,11.50
2023-05-15T00:56:59.794Z,11.40
2023-05-15T00:59:28.734Z,11.50
2023-05-15T01:01:55.864Z,11.60
2023-05-15T01:04:22.845Z,11.40
2023-05-15T01:06:53.816Z,11.40
2023-05-15T01:09:23.598Z,11.40
2023-05-15T01:11:53.674Z,11.40
2023-05-15T01:14:20.576Z,11.30
2023-05-15T01:16:47.762Z,11.30
2023-05-15T01:19:15.126Z,11.30
2023-05-15T01:22:00.062Z,11.30
2023-05-15T01:24:29.770Z,11.30
2023-05-15T01:27:15.042Z,11.40
2023-05-15T01:29:50.173Z,11.20
2023-05-15T01:32:24.335Z,11.10
2023-05-15T01:35:16.360Z,11.20
2023-05-15T01:37:50.163Z,11.30
2023-05-15T01:40:19.827Z,11.20
2023-05-15T01:42:56.117Z,11.20
2023-05-15T01:45:25.309Z,11.20
2023-05-15T01:47:54.407Z,11.20
2023-05-15T01:50:22.118Z,11.30
2023-05-15T01:52:58.689Z,11.30
2023-05-15T01:55:29.330Z,11.30
2023-05-15T01:57:59.812Z,11.30
2023-05-15T02:00:29.644Z,11.30
2023-05-15T02:02:57.824Z,11.20
2023-05-15T02:05:26.420Z,11.30
2023-05-15T02:07:54.345Z,11.30
2023-05-15T02:10:22.248Z,11.30
2023-05-15T02:12:50.316Z,11.20
2023-05-15T02:15:18.281Z,11.20
2023-05-15T02:17:49.446Z,11.10
2023-05-15T02:20:16.355Z,11.20
2023-05-15T02:22:43.802Z,11.30
2023-05-15T02:25:10.654Z,11.40
2023-05-15T02:27:54.066Z,11.30
2023-05-15T02:30:30.041Z,11.20
2023-05-15T02:33:22.854Z,11.30
2023-05-15T02:36:07.281Z,11.10
2023-05-15T02:38:46.989Z,11.10
2023-05-15T02:41:15.797Z,11.00
2023-05-15T02:43:44.440Z,11.00
2023-05-15T02:46:11.907Z,11.20
2023-05-15T02:48:40.934Z,11.20
2023-05-15T02:51:08.341Z,11.20
2023-05-15T02:53:40.797Z,11.20
2023-05-15T02:56:08.403Z,11.20
2023-05-15T02:58:36.104Z,11.30
2023-05-15T03:01:03.473Z,11.30
2023-05-15T03:03:30.707Z,11.40
2023-05-15T03:05:57.547Z,11.40
2023-05-15T03:08:24.290Z,11.30
2023-05-15T03:10:51.199Z,11.30
2023-05-15T03:13:18.083Z,11.50
2023-05-15T03:15:47.947Z,11.40
2023-05-15T03:18:17.315Z,11.30
2023-05-15T03:20:47.225Z,11.30
2023-05-15T03:23:14.009Z,11.40
2023-05-15T03:25:40.781Z,11.30
2023-05-15T03:28:07.871Z,11.30
2023-05-15T03:30:34.623Z,11.20
2023-05-15T03:33:04.936Z,11.30
2023-05-15T03:35:32.451Z,11.30
2023-05-15T03:37:59.758Z,11.30
2023-05-15T03:40:26.512Z,11.30
2023-05-15T03:42:53.741Z,11.30
2023-05-15T03:45:21.196Z,11.30
2023-05-15T03:47:48.929Z,11.30
2023-05-15T03:50:16.495Z,11.20
2023-05-15T03:52:43.869Z,11.30
2023-05-15T03:55:10.841Z,11.40
2023-05-15T03:57:37.808Z,11.10
2023-05-15T04:00:10.047Z,11.00
2023-05-15T04:02:41.025Z,11.00
2023-05-15T04:05:09.095Z,11.20
2023-05-15T04:07:37.058Z,11.20
2023-05-15T04:10:04.243Z,11.20
2023-05-15T04:12:35.281Z,11.30
2023-05-15T04:15:14.384Z,11.30
2023-05-15T04:17:41.372Z,11.30
2023-05-15T04:20:09.228Z,11.40
2023-05-15T04:22:36.015Z,11.20
2023-05-15T04:25:03.053Z,11.10
2023-05-15T04:27:29.929Z,11.10
2023-05-15T04:29:56.706Z,11.20
2023-05-15T04:32:23.901Z,11.30
2023-05-15T04:34:50.726Z,11.30
2023-05-15T04:37:17.581Z,11.30
2023-05-15T04:39:44.360Z,11.30
2023-05-15T04:42:11.468Z,11.30
2023-05-15T04:44:38.183Z,11.30
2023-05-15T04:47:05.179Z,11.30
2023-05-15T04:49:31.995Z,11.40
2023-05-15T04:51:59.090Z,11.40
2023-05-15T04:54:25.918Z,11.40
2023-05-15T04:56:52.843Z,11.30
2023-05-15T04:59:19.587Z,11.40
2023-05-15T05:01:46.494Z,11.50
2023-05-15T05:04:13.384Z,11.60
2023-05-15T05:06:40.198Z,11.50
2023-05-15T05:09:06.942Z,11.60
2023-05-15T05:11:34.395Z,11.70
2023-05-15T05:14:01.180Z,11.60
2023-05-15T05:16:28.479Z,11.60
2023-05-15T05:18:55.481Z,11.60
2023-05-15T05:21:22.427Z,11.60
2023-05-15T05:23:49.148Z,11.50
2023-05-15T05:26:15.937Z,11.70
2023-05-15T05:28:42.720Z,11.70
2023-05-15T05:31:09.575Z,11.60
2023-05-15T05:33:36.346Z,11.40
2023-05-15T05:36:03.166Z,11.40
2023-05-15T05:38:29.939Z,11.50
2023-05-15T05:40:56.704Z,11.60
2023-05-15T05:43:25.416Z,11.50
2023-05-15T05:45:52.830Z,11.50
2023-05-15T05:48:19.663Z,11.40
2023-05-15T05:50:46.479Z,11.40
2023-05-15T05:53:13.812Z,11.40
2023-05-15T05:55:40.937Z,11.40
2023-05-15T05:58:14.758Z,11.60
2023-05-15T06:00:51.279Z,11.60
2023-05-15T06:03:18.306Z,11.80
2023-05-15T06:05:46.121Z,11.70
2023-05-15T06:08:13.050Z,11.80
2023-05-15T06:10:40.024Z,11.90
2023-05-15T06:13:06.911Z,11.80
2023-05-15T06:15:33.918Z,12.00
2023-05-15T06:18:00.768Z,11.90
2023-05-15T06:20:27.705Z,11.80
2023-05-15T06:22:55.585Z,11.80
2023-05-15T06:25:22.422Z,11.90
2023-05-15T06:27:49.406Z,11.90
2023-05-15T06:30:16.318Z,11.90
2023-05-15T06:32:43.454Z,12.00
2023-05-15T06:35:11.316Z,12.20
2023-05-15T06:37:38.391Z,12.30
2023-05-15T06:40:06.336Z,12.30
2023-05-15T06:42:33.313Z,12.30
2023-05-15T06:45:00.836Z,12.40
2023-05-15T06:47:27.735Z,12.40
2023-05-15T06:49:55.556Z,12.30
2023-05-15T06:52:22.488Z,12.40
2023-05-15T06:54:49.440Z,12.40
2023-05-15T06:57:16.260Z,12.40
2023-05-15T06:59:43.219Z,12.60
2023-05-15T07:02:10.101Z,12.70
2023-05-15T07:04:37.373Z,12.80
2023-05-15T07:07:04.324Z,12.90
2023-05-15T07:09:31.187Z,13.10
2023-05-15T07:11:57.977Z,13.10
2023-05-15T07:14:25.297Z,13.10
2023-05-15T07:16:52.574Z,13.30
2023-05-15T07:19:22.559Z,13.50
2023-05-15T07:21:49.332Z,13.40
2023-05-15T07:24:16.096Z,13.50
2023-05-15T07:26:56.956Z,13.50
2023-05-15T07:29:24.892Z,13.60
2023-05-15T07:31:51.696Z,13.90
2023-05-15T07:34:18.483Z,13.90
2023-05-15T07:36:45.362Z,13.90
2023-05-15T07:39:12.311Z,14.10
2023-05-15T07:41:39.242Z,14.40
2023-05-15T07:44:06.445Z,14.60
2023-05-15T07:46:35.129Z,14.70
2023-05-15T07:49:02.217Z,14.70
2023-05-15T07:51:29.492Z,15.00
2023-05-15T07:53:56.246Z,15.10
2023-05-15T07:56:24.112Z,15.30
2023-05-15T07:58:50.853Z,15.30
2023-05-15T08:01:18.062Z,15.20
2023-05-15T08:03:44.989Z,15.30
2023-05-15T08:06:11.808Z,15.40
2023-05-15T08:08:38.665Z,15.60
2023-05-15T08:11:06.022Z,15.40
2023-05-15T08:13:32.823Z,15.60
2023-05-15T08:15:59.646Z,15.90
2023-05-15T08:18:26.409Z,15.80
2023-05-15T08:20:53.295Z,15.60
2023-05-15T08:23:20.277Z,15.60
2023-05-15T08:25:47.247Z,15.70
2023-05-15T08:28:14.076Z,15.70
2023-05-15T08:30:40.916Z,15.90
2023-05-15T08:33:07.742Z,16.30
2023-05-15T08:35:34.622Z,16.30
2023-05-15T08:38:01.385Z,16.30
2023-05-15T08:43:03.460Z,16.40
2023-05-15T08:45:31.001Z,16.50
2023-05-15T08:47:59.356Z,16.80
2023-05-15T08:50:26.837Z,17.00
2023-05-15T08:52:58.170Z,17.00
2023-05-15T08:55:25.545Z,17.30
2023-05-15T08:57:54.381Z,17.20
2023-05-15T09:00:22.643Z,17.50
2023-05-15T09:02:49.607Z,17.60
2023-05-15T09:05:16.441Z,17.40
2023-05-15T09:07:45.607Z,17.50
2023-05-15T09:10:13.670Z,17.80
2023-05-15T09:12:44.427Z,17.90
2023-05-15T09:15:17.836Z,17.90
2023-05-15T09:17:45.748Z,17.80
2023-05-15T09:20:32.281Z,18.10
2023-05-15T09:23:01.931Z,18.30
2023-05-15T09:25:42.678Z,18.70
2023-05-15T09:28:11.288Z,18.70
2023-05-15T09:30:39.111Z,18.80
2023-05-15T09:33:06.094Z,18.70
2023-05-15T09:35:38.226Z,18.60
2023-05-15T09:38:10.508Z,18.50
2023-05-15T09:40:38.832Z,18.70
2023-05-15T09:43:05.607Z,18.70
2023-05-15T09:45:33.911Z,18.70
2023-05-15T09:48:04.697Z,18.80
2023-05-15T09:50:39.734Z,18.90
2023-05-15T09:53:06.688Z,19.10
2023-05-15T09:55:37.060Z,19.50
2023-05-15T09:58:09.794Z,19.70
2023-05-15T10:00:47.843Z,19.90
2023-05-15T10:03:17.574Z,19.70
2023-05-15T10:05:44.684Z,19.90
2023-05-15T10:08:12.820Z,19.60
2023-05-15T10:10:39.801Z,19.30
2023-05-15T10:13:08.476Z,19.10
2023-05-15T10:15:35.658Z,19.10
2023-05-15T10:18:04.873Z,18.90
2023-05-15T10:20:35.688Z,18.80
2023-05-15T10:23:05.069Z,18.70
2023-05-15T10:25:52.951Z,18.60
2023-05-15T10:28:20.380Z,18.40
2023-05-15T10:30:48.257Z,18.40
2023-05-15T10:33:15.874Z,18.20
2023-05-15T10:35:43.289Z,18.20
2023-05-15T10:38:11.426Z,18.20
2023-05-15T10:40:41.094Z,18.20
2023-05-15T10:43:12.064Z,18.40
2023-05-15T10:45:39.706Z,18.80
2023-05-15T10:48:08.532Z,18.90
2023-05-15T10:50:37.564Z,19.20
2023-05-15T10:53:04.497Z,19.30
2023-05-15T10:55:31.479Z,19.30
2023-05-15T10:57:58.453Z,19.40
2023-05-15T11:00:31.358Z,19.40
2023-05-15T11:02:58.819Z,19.30
2023-05-15T11:05:26.509Z,19.20
2023-05-15T11:08:25.912Z,19.30
2023-05-15T11:10:53.641Z,19.30
2023-05-15T11:13:21.024Z,19.20
2023-05-15T11:15:48.936Z,19.10
2023-05-15T11:18:16.219Z,19.00
2023-05-15T11:20:52.106Z,18.90
2023-05-15T11:23:23.407Z,18.90
2023-05-15T11:25:55.822Z,19.10
2023-05-15T11:28:24.049Z,19.10
2023-05-15T11:30:52.860Z,19.20
2023-05-15T11:33:21.167Z,19.40
2023-05-15T11:35:48.984Z,19.60
2023-05-15T11:38:25.193Z,19.60
2023-05-15T11:40:58.366Z,19.40
2023-05-15T11:43:29.972Z,19.10
2023-05-15T11:46:11.093Z,18.90
2023-05-15T11:48:40.479Z,18.80
2023-05-15T11:51:21.765Z,18.80
2023-05-15T11:53:53.198Z,18.80
2023-05-15T11:56:25.755Z,18.90
2023-05-15T11:58:57.255Z,18.90
2023-05-15T12:01:24.623Z,18.90
2023-05-15T12:03:54.054Z,19.00
2023-05-15T12:06:21.264Z,19.10
2023-05-15T12:08:52.528Z,19.10
2023-05-15T12:11:23.252Z,19.20
2023-05-15T12:13:53.994Z,19.20
2023-05-15T12:16:26.307Z,19.20
2023-05-15T12:18:53.670Z,19.40
2023-05-15T12:21:20.945Z,19.40
2023-05-15T12:24:07.148Z,19.60
2023-05-15T12:26:35.854Z,19.70
2023-05-15T12:29:04.103Z,19.90
2023-05-15T12:31:31.166Z,20.60
2023-05-15T12:33:58.480Z,20.90
2023-05-15T12:36:29.758Z,20.90
2023-05-15T12:38:57.866Z,21.10
2023-05-15T12:41:29.198Z,21.50
2023-05-15T12:43:56.009Z,21.40
2023-05-15T12:46:24.489Z,21.50
2023-05-15T12:48:52.163Z,21.70
2023-05-15T12:51:18.972Z,21.90
2023-05-15T12:53:48.283Z,21.90
2023-05-15T12:56:18.149Z,22.00
2023-05-15T12:58:45.388Z,22.20
2023-05-15T13:01:12.587Z,22.20
2023-05-15T13:03:42.199Z,22.40
2023-05-15T13:06:10.569Z,22.40
2023-05-15T13:08:41.886Z,22.40
2023-05-15T13:11:13.877Z,22.30
2023-05-15T13:13:49.592Z,22.40
2023-05-15T13:16:29.353Z,22.60
2023-05-15T13:18:58.442Z,22.50
2023-05-15T13:21:26.056Z,22.70
2023-05-15T13:23:53.128Z,22.70
2023-05-15T13:26:20.223Z,22.20
2023-05-15T13:28:47.105Z,22.10
2023-05-15T13:31:14.103Z,22.40
2023-05-15T13:33:41.764Z,22.50
2023-05-15T13:36:22.013Z,22.80
2023-05-15T13:38:48.917Z,23.00
2023-05-15T13:41:15.800Z,22.70
2023-05-15T13:43:42.624Z,22.00
2023-05-15T13:46:09.567Z,21.60
2023-05-15T13:48:36.280Z,21.70
2023-05-15T13:51:03.282Z,21.40
2023-05-15T13:53:30.067Z,21.20
2023-05-15T13:55:57.085Z,21.00
2023-05-15T13:58:26.608Z,20.90
2023-05-15T14:00:53.591Z,20.90
2023-05-15T14:03:20.688Z,20.90
2023-05-15T14:05:49.723Z,21.00
2023-05-15T14:08:16.549Z,21.50
2023-05-15T14:10:44.558Z,21.90
2023-05-15T14:13:11.271Z,22.30
2023-05-15T14:15:38.116Z,22.30
2023-05-15T14:18:04.879Z,22.40
2023-05-15T14:20:32.008Z,22.30
2023-05-15T14:22:58.782Z,22.10
2023-05-15T14:25:25.865Z,22.30
2023-05-15T14:27:52.892Z,22.10
2023-05-15T14:30:21.592Z,21.50
2023-05-15T14:32:48.417Z,21.30
2023-05-15T14:35:15.541Z,21.00
2023-05-15T14:37:43.336Z,20.80
2023-05-15T14:40:11.043Z,20.70
2023-05-15T14:42:37.866Z,20.60
2023-05-15T14:45:05.005Z,21.00
2023-05-15T14:47:32.102Z,21.00
2023-05-15T14:49:59.019Z,21.10
2023-05-15T14:52:25.832Z,21.00
2023-05-15T14:55:04.998Z,20.90
2023-05-15T14:57:35.119Z,20.90
2023-05-15T15:00:02.235Z,20.90
2023-05-15T15:02:29.119Z,20.40
2023-05-15T15:04:56.000Z,20.20
2023-05-15T15:07:22.741Z,20.20
2023-05-15T15:09:49.814Z,20.20
2023-05-15T15:12:16.682Z,20.10
2023-05-15T15:14:43.465Z,20.10
2023-05-15T15:17:10.190Z,19.90
2023-05-15T15:19:36.962Z,19.80
2023-05-15T15:22:03.792Z,19.70
2023-05-15T15:24:30.783Z,19.80
2023-05-15T15:26:57.505Z,19.60
2023-05-15T15:29:24.326Z,19.60
2023-05-15T15:31:51.132Z,19.60
2023-05-15T15:34:17.951Z,19.50
2023-05-15T15:36:45.059Z,19.40
2023-05-15T15:39:13.073Z,19.50
2023-05-15T15:41:39.978Z,19.40
2023-05-15T15:44:06.716Z,19.30
2023-05-15T15:46:33.532Z,19.40
2023-05-15T15:49:00.457Z,19.40
2023-05-15T15:51:27.288Z,19.50
2023-05-15T15:53:54.122Z,19.40
2023-05-15T15:56:21.428Z,19.40
2023-05-15T15:58:48.325Z,19.30
2023-05-15T16:01:15.171Z,19.30
2023-05-15T16:03:42.205Z,19.50
2023-05-15T16:06:08.991Z,19.50
2023-05-15T16:08:35.830Z,19.40
2023-05-15T16:11:02.779Z,19.40
2023-05-15T16:13:29.747Z,19.30
2023-05-15T16:15:56.808Z,19.50
2023-05-15T16:18:23.639Z,19.60
2023-05-15T16:20:50.443Z,19.60
2023-05-15T16:23:17.335Z,19.70
2023-05-15T16:25:44.968Z,19.60
2023-05-15T16:28:12.060Z,19.50
2023-05-15T16:30:48.207Z,19.50
2023-05-15T16:33:17.866Z,19.40
2023-05-15T16:35:45.465Z,19.40
2023-05-15T16:38:12.624Z,19.40
2023-05-15T16:40:39.461Z,19.30
2023-05-15T16:43:07.175Z,19.30
2023-05-15T16:45:34.091Z,19.20
2023-05-15T16:48:01.054Z,19.20
2023-05-15T16:50:28.031Z,19.20
2023-05-15T16:52:54.922Z,19.20
2023-05-15T16:55:21.785Z,19.20
2023-05-15T16:57:48.713Z,19.20
2023-05-15T17:00:16.670Z,19.20
2023-05-15T17:02:43.980Z,19.20
2023-05-15T17:05:11.646Z,19.00
2023-05-15T17:07:39.038Z,19.00
2023-05-15T17:10:07.209Z,19.00
2023-05-15T17:12:34.557Z,18.90
2023-05-15T17:15:01.753Z,18.90
2023-05-15T17:17:28.615Z,18.80
2023-05-15T17:19:56.394Z,18.80
2023-05-15T17:22:23.835Z,18.80
2023-05-15T17:24:52.176Z,18.80
2023-05-15T17:27:19.697Z,18.80
2023-05-15T17:29:47.160Z,18.80
2023-05-15T17:32:14.702Z,18.80
2023-05-15T17:34:41.624Z,18.80
2023-05-15T17:37:09.062Z,18.70
2023-05-15T17:39:36.310Z,18.70
2023-05-15T17:42:03.629Z,18.60
2023-05-15T17:44:31.151Z,18.70
2023-05-15T17:46:58.810Z,18.70
2023-05-15T17:49:26.321Z,18.60
2023-05-15T17:51:53.972Z,18.70
2023-05-15T17:54:20.809Z,18.70
2023-05-15T17:56:48.104Z,18.70
2023-05-15T17:59:15.378Z,18.50
2023-05-15T18:01:42.371Z,18.30
2023-05-15T18:04:10.174Z,18.30
2023-05-15T18:06:37.208Z,18.10
2023-05-15T18:09:05.078Z,18.10
2023-05-15T18:11:31.980Z,17.90
2023-05-15T18:13:58.839Z,17.90
2023-05-15T18:16:25.908Z,17.90
2023-05-15T18:18:52.862Z,17.90
2023-05-15T18:21:20.372Z,17.80
2023-05-15T18:23:47.419Z,17.80
2023-05-15T18:26:14.186Z,17.60
2023-05-15T18:28:41.591Z,17.60
2023-05-15T18:31:08.532Z,17.60
2023-05-15T18:33:35.319Z,17.50
2023-05-15T18:36:02.272Z,17.40
2023-05-15T18:38:29.164Z,17.30
2023-05-15T18:40:55.902Z,17.40
2023-05-15T18:43:23.209Z,17.30
2023-05-15T18:45:50.238Z,17.20
2023-05-15T18:48:17.242Z,17.20
2023-05-15T18:50:44.043Z,17.10
2023-05-15T18:53:10.882Z,17.10
2023-05-15T18:55:39.133Z,17.00
2023-05-15T18:58:06.100Z,17.10
2023-05-15T19:00:38.577Z,17.10
2023-05-15T19:03:09.008Z,17.10
2023-05-15T19:05:35.885Z,16.90
2023-05-15T19:08:03.177Z,16.90
2023-05-15T19:10:30.566Z,17.00
2023-05-15T19:12:57.937Z,16.80
2023-05-15T19:15:25.576Z,16.80
2023-05-15T19:17:52.662Z,16.70
2023-05-15T19:20:20.600Z,16.50
2023-05-15T19:22:47.413Z,16.30
2023-05-15T19:25:14.210Z,16.30
2023-05-15T19:27:41.249Z,16.20
2023-05-15T19:30:09.863Z,16.20
2023-05-15T19:32:37.442Z,16.10
2023-05-15T19:35:05.304Z,16.10
2023-05-15T19:37:32.010Z,16.00
2023-05-15T19:39:58.827Z,15.90
2023-05-15T19:42:26.183Z,15.90
2023-05-15T19:44:52.940Z,15.80
2023-05-15T19:47:19.715Z,15.80
2023-05-15T19:49:46.635Z,15.70
2023-05-15T19:52:13.372Z,15.80
2023-05-15T19:54:40.159Z,16.00
2023-05-15T19:57:06.942Z,15.70
2023-05-15T19:59:33.734Z,15.60
2023-05-15T20:02:01.585Z,15.70
2023-05-15T20:04:29.758Z,15.80
2023-05-15T20:06:56.631Z,15.70
2023-05-15T20:09:23.415Z,15.40
2023-05-15T20:11:50.296Z,15.30
2023-05-15T20:14:17.110Z,15.20
2023-05-15T20:16:43.968Z,15.10
2023-05-15T20:19:11.326Z,15.10
2023-05-15T20:21:39.584Z,15.10
2023-05-15T20:24:06.981Z,15.10
2023-05-15T20:26:35.980Z,15.00
2023-05-15T20:29:03.498Z,14.90
2023-05-15T20:31:30.508Z,14.70
2023-05-15T20:33:57.327Z,14.70
2023-05-15T20:36:25.614Z,14.80
2023-05-15T20:38:53.142Z,14.80
2023-05-15T20:41:22.828Z,15.00
2023-05-15T20:43:50.210Z,15.00
2023-05-15T20:46:17.193Z,14.90
2023-05-15T20:48:44.468Z,14.70
2023-05-15T20:51:11.225Z,14.60
2023-05-15T20:53:38.324Z,14.60
2023-05-15T20:56:05.388Z,14.50
2023-05-15T20:58:32.140Z,14.50
2023-05-15T21:01:01.705Z,14.50
2023-05-15T21:03:29.526Z,14.40
2023-05-15T21:05:57.522Z,14.40
2023-05-15T21:08:24.617Z,14.40
2023-05-15T21:10:53.211Z,14.50
2023-05-15T21:13:20.133Z,14.40
2023-05-15T21:15:47.188Z,14.40
2023-05-15T21:18:14.153Z,14.30
2023-05-15T21:20:41.740Z,14.10
2023-05-15T21:23:08.713Z,14.20
2023-05-15T21:25:35.628Z,14.20
2023-05-15T21:28:02.863Z,14.10
2023-05-15T21:30:29.697Z,14.30
2023-05-15T21:32:56.575Z,14.20
2023-05-15T21:35:25.086Z,14.40
2023-05-15T21:37:51.886Z,14.20
2023-05-15T21:40:19.062Z,14.10
2023-05-15T21:42:45.907Z,14.20
2023-05-15T21:45:12.877Z,14.10
2023-05-15T21:47:39.701Z,14.20
2023-05-15T21:50:07.334Z,14.20
2023-05-15T21:52:34.105Z,14.20
2023-05-15T21:55:00.842Z,14.20
2023-05-15T21:57:27.697Z,14.00
2023-05-15T21:59:54.566Z,13.90
2023-05-15T22:02:22.561Z,13.90
2023-05-15T22:04:49.436Z,13.90
2023-05-15T22:07:16.524Z,13.80
2023-05-15T22:09:44.116Z,13.90
2023-05-15T22:12:11.097Z,13.90
2023-05-15T22:14:41.765Z,14.00
2023-05-15T22:17:14.116Z,14.00
2023-05-15T22:19:45.789Z,14.00
2023-05-15T22:22:12.790Z,13.80
2023-05-15T22:24:39.556Z,13.80
2023-05-15T22:27:06.337Z,13.90
2023-05-15T22:29:34.125Z,13.90
2023-05-15T22:32:01.247Z,13.90
2023-05-15T22:34:29.913Z,13.90
2023-05-15T22:36:56.972Z,13.80
2023-05-15T22:39:23.736Z,13.70
2023-05-15T22:41:50.577Z,13.70
2023-05-15T22:44:17.510Z,13.80
2023-05-15T22:46:44.255Z,13.80
2023-05-15T22:49:23.446Z,13.90
2023-05-15T22:51:50.553Z,13.80
2023-05-15T22:54:21.608Z,13.60
2023-05-15T22:56:50.153Z,13.70
2023-05-15T22:59:17.257Z,13.80
2023-05-15T23:01:44.781Z,13.80
2023-05-15T23:04:11.997Z,13.80
2023-05-15T23:06:40.233Z,13.60
2023-05-15T23:09:07.804Z,13.60
2023-05-15T23:11:35.503Z,13.60
2023-05-15T23:14:02.933Z,13.60
2023-05-15T23:16:31.037Z,13.50
2023-05-15T23:18:58.032Z,13.50
2023-05-15T23:21:25.394Z,13.50
2023-05-15T23:23:52.348Z,13.60
2023-05-15T23:26:19.355Z,13.60
2023-05-15T23:28:46.518Z,13.60
2023-05-15T23:31:14.056Z,13.40
2023-05-15T23:33:41.118Z,13.40
2023-05-15T23:36:08.053Z,13.50
2023-05-15T23:38:34.853Z,13.40
2023-05-15T23:41:01.807Z,13.40
2023-05-15T23:43:29.034Z,13.50
2023-05-15T23:45:55.929Z,13.30
2023-05-15T23:48:22.625Z,13.30
2023-05-15T23:50:49.464Z,13.50
2023-05-15T23:53:16.256Z,13.40
2023-05-15T23:55:43.080Z,13.40
2023-05-15T23:58:09.895Z,13.30
